Time;durP1;ratioP1;P1;durP2;ratioP2;P2;SDS_P1;SDS_P2;PMS_P1;PMS_P2;Temp;Humidity;BMP_temperature;BMP_pressure;BME280_temperature;BME280_humidity;BME280_pressure;Samples;Min_cycle;Max_cycle;Signal;HPM_P1;HPM_P2
2021/09/12 00:00:06;;;;;;;10.75;6.30;;;;;;;;;;5002491;28;20032;-80
2021/09/12 00:02:38;;;;;;;9.65;5.97;;;;;;;;;;4969226;28;20073;-79
2021/09/12 00:05:05;;;;;;;8.25;4.60;;;;;;;;;;4979693;28;20033;-80
2021/09/12 00:07:31;;;;;;;11.35;6.90;;;;;;;;;;5017675;28;20041;-79
2021/09/12 00:09:56;;;;;;;5.88;3.97;;;;;;;;;;5002788;28;20110;-80
2021/09/12 00:12:22;;;;;;;8.98;4.28;;;;;;;;;;5003841;28;20041;-78
2021/09/12 00:14:48;;;;;;;13.20;6.43;;;;;;;;;;4985815;28;20041;-79
2021/09/12 00:17:14;;;;;;;7.60;4.57;;;;;;;;;;5003017;28;20415;-79
2021/09/12 00:19:40;;;;;;;6.30;4.38;;;;;;;;;;4985765;28;20051;-80
2021/09/12 00:22:06;;;;;;;5.50;4.00;;;;;;;;;;5002084;28;20049;-78
2021/09/12 00:24:34;;;;;;;7.03;3.70;;;;;;;;;;5001834;28;20044;-79
2021/09/12 00:27:03;;;;;;;9.73;4.40;;;;;;;;;;4997627;28;20124;-79
2021/09/12 00:29:32;;;;;;;5.43;4.18;;;;;;;;;;4998293;28;20061;-79
2021/09/12 00:31:57;;;;;;;8.10;5.03;;;;;;;;;;4982759;28;20041;-76
2021/09/12 00:34:23;;;;;;;6.75;4.40;;;;;;;;;;5004905;28;20562;-78
2021/09/12 00:36:49;;;;;;;10.13;4.93;;;;;;;;;;4980373;28;20049;-78
2021/09/12 00:39:15;;;;;;;10.18;5.05;;;;;;;;;;5002825;28;20090;-77
2021/09/12 00:41:42;;;;;;;7.15;4.65;;;;;;;;;;4985911;28;20089;-78
2021/09/12 00:44:10;;;;;;;5.45;3.97;;;;;;;;;;4985250;28;20037;-79
2021/09/12 00:46:40;;;;;;;7.43;4.13;;;;;;;;;;5000949;28;20090;-79
2021/09/12 00:49:06;;;;;;;16.63;8.10;;;;;;;;;;4984715;28;20045;-78
2021/09/12 00:51:32;;;;;;;17.45;9.38;;;;;;;;;;5003434;28;20106;-78
2021/09/12 00:53:58;;;;;;;5.68;3.75;;;;;;;;;;5001630;28;20033;-77
2021/09/12 00:56:26;;;;;;;6.38;3.53;;;;;;;;;;4998742;28;20538;-79
2021/09/12 00:58:53;;;;;;;5.15;3.80;;;;;;;;;;4983349;28;20045;-79
2021/09/12 01:01:19;;;;;;;6.72;4.80;;;;;;;;;;4979096;28;20459;-79
2021/09/12 01:03:45;;;;;;;6.88;4.63;;;;;;;;;;4997949;28;20033;-77
2021/09/12 01:06:10;;;;;;;6.22;3.60;;;;;;;;;;4985659;28;20049;-78
2021/09/12 01:08:41;;;;;;;9.43;4.60;;;;;;;;;;5003073;28;20052;-79
2021/09/12 01:11:06;;;;;;;6.18;3.80;;;;;;;;;;5005534;28;20037;-78
2021/09/12 01:13:42;;;;;;;16.30;8.73;;;;;;;;;;4991497;28;20041;-79
2021/09/12 01:16:16;;;;;;;6.07;4.15;;;;;;;;;;4993795;28;20423;-80
2021/09/12 01:18:43;;;;;;;10.20;4.47;;;;;;;;;;5002407;28;20124;-80
2021/09/12 01:21:16;;;;;;;8.00;4.57;;;;;;;;;;4984993;28;20095;-81
2021/09/12 01:23:43;;;;;;;10.98;4.40;;;;;;;;;;4984927;28;20053;-80
2021/09/12 01:26:11;;;;;;;10.00;5.70;;;;;;;;;;5002303;28;20065;-80
2021/09/12 01:28:41;;;;;;;7.25;4.05;;;;;;;;;;5001788;28;20534;-79
2021/09/12 01:31:22;;;;;;;11.45;4.85;;;;;;;;;;5001515;28;20037;-78
2021/09/12 01:33:48;;;;;;;8.82;5.00;;;;;;;;;;4988092;28;20041;-79
2021/09/12 01:36:15;;;;;;;8.75;4.47;;;;;;;;;;4985405;28;20041;-84
2021/09/12 01:38:50;;;;;;;13.68;6.90;;;;;;;;;;4984938;28;20029;-82
2021/09/12 01:41:15;;;;;;;17.73;8.50;;;;;;;;;;5002465;28;20113;-81
2021/09/12 01:43:48;;;;;;;15.50;7.78;;;;;;;;;;4969135;28;20476;-81
2021/09/12 01:46:14;;;;;;;9.55;5.45;;;;;;;;;;5001246;28;20064;-80
2021/09/12 01:48:40;;;;;;;7.07;4.70;;;;;;;;;;4999444;28;20045;-80
2021/09/12 01:51:06;;;;;;;7.70;4.38;;;;;;;;;;4984471;28;20049;-80
2021/09/12 01:53:33;;;;;;;9.52;5.40;;;;;;;;;;4967400;28;20042;-78
2021/09/12 01:55:59;;;;;;;6.82;4.40;;;;;;;;;;4966971;28;20042;-81
2021/09/12 01:58:28;;;;;;;6.80;4.53;;;;;;;;;;4969925;28;20057;-82
2021/09/12 02:00:53;;;;;;;8.50;4.68;;;;;;;;;;4965603;28;20557;-81
2021/09/12 02:03:19;;;;;;;8.40;4.75;;;;;;;;;;4981797;28;20037;-81
2021/09/12 02:05:45;;;;;;;10.85;5.60;;;;;;;;;;4965053;28;20045;-79
2021/09/12 02:08:11;;;;;;;12.43;6.65;;;;;;;;;;4982648;28;20038;-81
2021/09/12 02:10:37;;;;;;;9.68;4.80;;;;;;;;;;4980990;28;20539;-78
2021/09/12 02:13:02;;;;;;;11.57;5.45;;;;;;;;;;4970966;28;20068;-80
2021/09/12 02:15:28;;;;;;;8.13;5.28;;;;;;;;;;4994821;28;20037;-83
2021/09/12 02:17:54;;;;;;;9.07;6.03;;;;;;;;;;4992532;28;20041;-80
2021/09/12 02:20:20;;;;;;;10.15;5.10;;;;;;;;;;4991889;28;20041;-82
2021/09/12 02:22:46;;;;;;;11.93;4.30;;;;;;;;;;5001568;28;20037;-81
2021/09/12 02:25:12;;;;;;;13.40;7.18;;;;;;;;;;4967754;28;20037;-80
2021/09/12 02:27:38;;;;;;;7.80;4.88;;;;;;;;;;4983834;28;20112;-80
2021/09/12 02:30:04;;;;;;;13.48;6.20;;;;;;;;;;4999768;28;20044;-78
2021/09/12 02:32:30;;;;;;;11.43;6.05;;;;;;;;;;4973121;28;20033;-80
2021/09/12 02:34:56;;;;;;;10.35;5.53;;;;;;;;;;4965390;28;20653;-79
2021/09/12 02:37:22;;;;;;;15.43;5.22;;;;;;;;;;4980339;28;20042;-78
2021/09/12 02:39:48;;;;;;;10.52;4.90;;;;;;;;;;4980452;28;20033;-80
2021/09/12 02:42:14;;;;;;;10.02;4.90;;;;;;;;;;4982584;28;20112;-79
2021/09/12 02:44:40;;;;;;;12.52;6.55;;;;;;;;;;4984229;28;20033;-80
2021/09/12 02:47:06;;;;;;;11.23;5.40;;;;;;;;;;4968202;28;20067;-81
2021/09/12 02:49:32;;;;;;;10.20;4.60;;;;;;;;;;5018913;28;20071;-80
2021/09/12 02:51:58;;;;;;;12.68;5.95;;;;;;;;;;4996111;28;20111;-79
2021/09/12 02:54:23;;;;;;;10.38;5.60;;;;;;;;;;4987534;28;20037;-81
2021/09/12 02:56:49;;;;;;;11.88;5.70;;;;;;;;;;4951156;28;20282;-80
2021/09/12 02:59:15;;;;;;;9.95;5.25;;;;;;;;;;4982309;28;20049;-79
2021/09/12 03:01:41;;;;;;;13.25;5.40;;;;;;;;;;4982525;28;20037;-80
2021/09/12 03:04:07;;;;;;;15.25;6.30;;;;;;;;;;4981769;28;20044;-78
2021/09/12 03:06:32;;;;;;;9.35;5.05;;;;;;;;;;4982117;28;20116;-80
2021/09/12 03:08:58;;;;;;;11.32;5.93;;;;;;;;;;4981304;28;20096;-78
2021/09/12 03:11:24;;;;;;;13.27;7.43;;;;;;;;;;4987914;28;20041;-78
2021/09/12 03:13:50;;;;;;;8.35;4.50;;;;;;;;;;4966522;28;20038;-80
2021/09/12 03:16:17;;;;;;;12.18;5.38;;;;;;;;;;4982359;28;20057;-80
2021/09/12 03:18:44;;;;;;;7.32;4.05;;;;;;;;;;4981246;28;20037;-81
2021/09/12 03:21:10;;;;;;;11.75;5.88;;;;;;;;;;4981691;28;20034;-80
2021/09/12 03:23:36;;;;;;;7.32;4.35;;;;;;;;;;4950338;28;20106;-79
2021/09/12 03:26:02;;;;;;;14.18;5.80;;;;;;;;;;4981374;28;20042;-83
2021/09/12 03:28:28;;;;;;;9.02;4.30;;;;;;;;;;4981933;28;20068;-78
2021/09/12 03:30:53;;;;;;;9.40;4.93;;;;;;;;;;4985582;28;20474;-79
2021/09/12 03:33:19;;;;;;;7.38;4.53;;;;;;;;;;4967116;28;20096;-79
2021/09/12 03:35:45;;;;;;;12.02;6.70;;;;;;;;;;4985237;28;20038;-79
2021/09/12 03:38:11;;;;;;;11.45;4.70;;;;;;;;;;4986466;28;20056;-82
2021/09/12 03:40:36;;;;;;;8.18;4.38;;;;;;;;;;4970610;28;20038;-80
2021/09/12 03:43:02;;;;;;;13.77;6.55;;;;;;;;;;4984930;28;20065;-79
2021/09/12 03:45:28;;;;;;;10.05;5.38;;;;;;;;;;4988109;28;20039;-79
2021/09/12 03:47:54;;;;;;;9.68;4.38;;;;;;;;;;5000577;28;20053;-81
2021/09/12 03:50:20;;;;;;;11.48;5.47;;;;;;;;;;4999209;28;20049;-80
2021/09/12 03:52:45;;;;;;;12.65;4.80;;;;;;;;;;5001234;28;20107;-79
2021/09/12 03:55:11;;;;;;;7.45;4.35;;;;;;;;;;4999139;28;20112;-80
2021/09/12 03:57:37;;;;;;;16.67;9.15;;;;;;;;;;5015333;28;20534;-80
2021/09/12 04:00:05;;;;;;;7.50;4.40;;;;;;;;;;4998760;28;20111;-80
2021/09/12 04:02:30;;;;;;;9.02;4.35;;;;;;;;;;5002170;28;20041;-80
2021/09/12 04:04:56;;;;;;;8.55;4.50;;;;;;;;;;4982641;28;20044;-80
2021/09/12 04:07:22;;;;;;;7.03;4.55;;;;;;;;;;5002754;28;20041;-79
2021/09/12 04:09:48;;;;;;;9.27;4.03;;;;;;;;;;4973482;28;20037;-81
2021/09/12 04:12:14;;;;;;;8.32;3.90;;;;;;;;;;5003747;28;20489;-80
2021/09/12 04:14:39;;;;;;;6.07;4.00;;;;;;;;;;5003851;28;20033;-80
2021/09/12 04:17:05;;;;;;;10.88;4.20;;;;;;;;;;5005304;28;20041;-81
2021/09/12 04:19:31;;;;;;;10.07;4.13;;;;;;;;;;5001022;28;20446;-80
2021/09/12 04:21:57;;;;;;;7.00;3.30;;;;;;;;;;4999519;28;20045;-81
2021/09/12 04:24:24;;;;;;;9.63;3.50;;;;;;;;;;4966616;28;20045;-80
2021/09/12 04:26:50;;;;;;;5.65;3.45;;;;;;;;;;4982945;28;20531;-80
2021/09/12 04:29:16;;;;;;;7.95;3.08;;;;;;;;;;4982836;28;20048;-81
2021/09/12 04:31:42;;;;;;;9.63;3.40;;;;;;;;;;4983089;28;20038;-82
2021/09/12 04:34:08;;;;;;;11.77;3.58;;;;;;;;;;4963363;28;20075;-80
2021/09/12 04:36:34;;;;;;;17.88;4.40;;;;;;;;;;4985059;28;20447;-82
2021/09/12 04:39:00;;;;;;;16.00;3.67;;;;;;;;;;4967398;28;20558;-81
2021/09/12 04:41:25;;;;;;;18.38;4.30;;;;;;;;;;4984582;28;20037;-83
2021/09/12 04:43:51;;;;;;;15.57;4.35;;;;;;;;;;5000089;28;20034;-80
2021/09/12 04:46:17;;;;;;;18.70;4.07;;;;;;;;;;4983906;28;20431;-82
2021/09/12 04:48:43;;;;;;;28.38;4.88;;;;;;;;;;4988685;28;20170;-82
2021/09/12 04:51:09;;;;;;;21.63;4.03;;;;;;;;;;5003093;28;20041;-81
2021/09/12 04:53:34;;;;;;;13.88;4.03;;;;;;;;;;4987239;28;20052;-80
2021/09/12 04:56:00;;;;;;;11.90;3.85;;;;;;;;;;5004250;28;20037;-81
2021/09/12 04:58:26;;;;;;;10.98;3.20;;;;;;;;;;5004966;28;20037;-81
2021/09/12 05:00:52;;;;;;;8.80;3.00;;;;;;;;;;5002053;28;20068;-81
2021/09/12 05:03:18;;;;;;;9.68;3.58;;;;;;;;;;4969289;28;20036;-82
2021/09/12 05:05:44;;;;;;;11.35;3.35;;;;;;;;;;4969959;28;20037;-83
2021/09/12 05:08:10;;;;;;;10.98;3.47;;;;;;;;;;4987472;28;20052;-82
2021/09/12 05:10:36;;;;;;;8.30;3.50;;;;;;;;;;4987417;28;20033;-82
2021/09/12 05:13:02;;;;;;;9.93;3.38;;;;;;;;;;5015137;28;20474;-82
2021/09/12 05:15:28;;;;;;;15.32;3.38;;;;;;;;;;5004739;28;20041;-81
2021/09/12 05:17:54;;;;;;;15.23;4.82;;;;;;;;;;4985795;28;20060;-81
2021/09/12 05:20:21;;;;;;;17.33;5.43;;;;;;;;;;5000533;28;20418;-82
2021/09/12 05:22:47;;;;;;;24.70;3.97;;;;;;;;;;5000190;28;20052;-82
2021/09/12 05:25:13;;;;;;;26.48;3.60;;;;;;;;;;4985001;28;20034;-82
2021/09/12 05:27:39;;;;;;;10.70;3.10;;;;;;;;;;4986105;28;20045;-83
2021/09/12 05:30:05;;;;;;;9.05;3.47;;;;;;;;;;4999662;28;20073;-82
2021/09/12 05:32:31;;;;;;;11.38;3.08;;;;;;;;;;4982406;28;20103;-83
2021/09/12 05:34:56;;;;;;;10.93;3.22;;;;;;;;;;4990408;28;20045;-81
2021/09/12 05:37:22;;;;;;;9.60;3.30;;;;;;;;;;5002200;28;20048;-81
2021/09/12 05:39:48;;;;;;;10.68;3.10;;;;;;;;;;5003643;28;20059;-81
2021/09/12 05:42:14;;;;;;;6.55;2.80;;;;;;;;;;4967694;28;20049;-82
2021/09/12 05:44:40;;;;;;;12.60;3.10;;;;;;;;;;4982591;28;20041;-82
2021/09/12 05:47:05;;;;;;;18.35;3.28;;;;;;;;;;4983032;28;20049;-83
2021/09/12 05:49:31;;;;;;;12.00;3.40;;;;;;;;;;4966028;28;20111;-84
2021/09/12 05:51:57;;;;;;;8.38;2.75;;;;;;;;;;4982296;28;20095;-82
2021/09/12 05:54:23;;;;;;;16.52;3.30;;;;;;;;;;4984278;28;20104;-82
2021/09/12 05:56:49;;;;;;;12.07;3.75;;;;;;;;;;4966406;28;20049;-82
2021/09/12 05:59:15;;;;;;;17.85;4.15;;;;;;;;;;4994817;28;20518;-85
2021/09/12 06:01:40;;;;;;;32.45;4.20;;;;;;;;;;4981060;28;20124;-80
2021/09/12 06:04:06;;;;;;;10.30;3.90;;;;;;;;;;4987794;28;20056;-86
2021/09/12 06:06:32;;;;;;;10.75;3.10;;;;;;;;;;4987290;28;20037;-85
2021/09/12 06:08:58;;;;;;;9.77;3.17;;;;;;;;;;4994036;28;20108;-84
2021/09/12 06:11:24;;;;;;;9.63;3.50;;;;;;;;;;5003708;28;20479;-88
2021/09/12 06:13:50;;;;;;;7.97;3.17;;;;;;;;;;4969890;28;20052;-81
2021/09/12 06:16:16;;;;;;;7.40;3.17;;;;;;;;;;5001880;28;20041;-83
2021/09/12 06:18:42;;;;;;;8.40;3.10;;;;;;;;;;5010908;28;20076;-83
2021/09/12 06:21:09;;;;;;;10.85;3.20;;;;;;;;;;4994619;28;20044;-81
2021/09/12 06:23:34;;;;;;;9.45;3.97;;;;;;;;;;5001134;28;20491;-81
2021/09/12 06:26:00;;;;;;;14.10;3.63;;;;;;;;;;4992698;28;20037;-81
2021/09/12 06:28:26;;;;;;;8.95;3.80;;;;;;;;;;4974699;28;20064;-83
2021/09/12 06:30:52;;;;;;;19.70;3.95;;;;;;;;;;5000741;28;20048;-81
2021/09/12 06:33:18;;;;;;;12.93;3.38;;;;;;;;;;4984767;28;20041;-82
2021/09/12 06:35:44;;;;;;;8.57;3.35;;;;;;;;;;4984208;28;20037;-83
2021/09/12 06:38:09;;;;;;;11.75;3.45;;;;;;;;;;5000714;28;20526;-81
2021/09/12 06:40:35;;;;;;;16.67;3.20;;;;;;;;;;5000346;28;20119;-83
2021/09/12 06:43:01;;;;;;;10.93;3.30;;;;;;;;;;5000733;28;20104;-83
2021/09/12 06:45:28;;;;;;;6.18;2.70;;;;;;;;;;4986710;28;20037;-82
2021/09/12 06:47:54;;;;;;;8.82;2.80;;;;;;;;;;4986096;28;20076;-82
2021/09/12 06:50:21;;;;;;;16.55;3.60;;;;;;;;;;5003152;28;20060;-81
2021/09/12 06:52:47;;;;;;;11.02;3.30;;;;;;;;;;5003856;28;20053;-81
2021/09/12 06:55:12;;;;;;;10.77;3.40;;;;;;;;;;4985952;28;20033;-81
2021/09/12 06:57:38;;;;;;;17.35;3.63;;;;;;;;;;5002550;28;20036;-83
2021/09/12 07:00:10;;;;;;;7.68;3.50;;;;;;;;;;5005663;28;20071;-83
2021/09/12 07:02:36;;;;;;;10.05;3.42;;;;;;;;;;5001659;28;20076;-83
2021/09/12 07:05:03;;;;;;;8.73;3.30;;;;;;;;;;5002434;28;20410;-82
2021/09/12 07:07:29;;;;;;;11.88;3.35;;;;;;;;;;5001952;28;20041;-82
2021/09/12 07:09:55;;;;;;;8.20;2.90;;;;;;;;;;4987264;28;20052;-84
2021/09/12 07:12:21;;;;;;;12.77;3.50;;;;;;;;;;5003410;28;20210;-83
2021/09/12 07:14:46;;;;;;;8.68;3.20;;;;;;;;;;5003567;28;20037;-85
2021/09/12 07:17:13;;;;;;;12.77;3.95;;;;;;;;;;5018376;28;20098;-82
2021/09/12 07:19:39;;;;;;;11.93;4.25;;;;;;;;;;4985229;28;20103;-82
2021/09/12 07:22:05;;;;;;;11.50;3.35;;;;;;;;;;5007089;28;20042;-86
2021/09/12 07:24:32;;;;;;;17.95;3.80;;;;;;;;;;4984767;28;20067;-81
2021/09/12 07:26:58;;;;;;;15.98;4.35;;;;;;;;;;4983976;28;20445;-83
2021/09/12 07:29:24;;;;;;;21.98;5.10;;;;;;;;;;5002704;28;20049;-81
2021/09/12 07:31:51;;;;;;;14.50;4.47;;;;;;;;;;4996764;28;20114;-84
2021/09/12 07:34:17;;;;;;;14.75;3.70;;;;;;;;;;5004951;28;20042;-81
2021/09/12 07:36:43;;;;;;;9.23;3.45;;;;;;;;;;5008252;28;20048;-80
2021/09/12 07:39:09;;;;;;;11.13;3.53;;;;;;;;;;4988800;28;20415;-82
2021/09/12 07:41:35;;;;;;;15.75;5.15;;;;;;;;;;4987925;28;20041;-81
2021/09/12 07:44:00;;;;;;;13.60;3.38;;;;;;;;;;5002338;28;20048;-84
2021/09/12 07:46:26;;;;;;;20.98;4.00;;;;;;;;;;5003066;28;20051;-84
2021/09/12 07:48:52;;;;;;;13.75;4.72;;;;;;;;;;4971304;28;20056;-82
2021/09/12 07:51:18;;;;;;;18.63;5.65;;;;;;;;;;4986536;28;20075;-86
2021/09/12 07:53:44;;;;;;;22.23;4.43;;;;;;;;;;4972913;28;20043;-85
2021/09/12 07:56:16;;;;;;;13.85;4.13;;;;;;;;;;5002157;28;20077;-82
2021/09/12 07:58:56;;;;;;;17.48;3.80;;;;;;;;;;4997917;28;20490;-84
2021/09/12 08:01:23;;;;;;;15.13;3.70;;;;;;;;;;5001727;28;20033;-83
2021/09/12 08:03:50;;;;;;;34.90;5.30;;;;;;;;;;4981107;28;20053;-84
2021/09/12 08:06:16;;;;;;;20.52;4.63;;;;;;;;;;5005093;28;20041;-81
2021/09/12 08:08:42;;;;;;;11.82;4.30;;;;;;;;;;5006394;28;20098;-86
2021/09/12 08:11:08;;;;;;;9.25;4.03;;;;;;;;;;4991713;28;20091;-86
2021/09/12 08:13:34;;;;;;;23.33;4.50;;;;;;;;;;4973534;28;20119;-84
2021/09/12 08:16:00;;;;;;;12.13;4.13;;;;;;;;;;5004478;28;20044;-87
2021/09/12 08:18:26;;;;;;;10.45;4.03;;;;;;;;;;4988452;28;20041;-85
2021/09/12 08:20:51;;;;;;;7.78;3.40;;;;;;;;;;4974238;28;20041;-83
2021/09/12 08:23:17;;;;;;;10.75;3.80;;;;;;;;;;5010439;28;20045;-86
2021/09/12 08:25:43;;;;;;;10.00;3.55;;;;;;;;;;5008787;28;20052;-82
2021/09/12 08:28:09;;;;;;;14.40;4.15;;;;;;;;;;4995760;28;20037;-85
2021/09/12 08:30:35;;;;;;;11.23;3.72;;;;;;;;;;4990039;28;20056;-85
2021/09/12 08:33:06;;;;;;;16.48;4.10;;;;;;;;;;4976282;28;20124;-82
2021/09/12 08:35:31;;;;;;;;;;;;;;;;;;5002281;28;20049;-83
2021/09/12 08:37:57;;;;;;;4.35;3.22;;;;;;;;;;5014771;28;19933;-83
2021/09/12 08:40:23;;;;;;;16.33;4.15;;;;;;;;;;5008634;28;20148;-87
2021/09/12 08:42:49;;;;;;;21.02;4.80;;;;;;;;;;4987456;28;20099;-85
2021/09/12 08:45:15;;;;;;;15.65;4.70;;;;;;;;;;4970877;28;20484;-85
2021/09/12 08:47:41;;;;;;;13.85;4.80;;;;;;;;;;5003429;28;20083;-82
2021/09/12 08:50:08;;;;;;;11.75;4.38;;;;;;;;;;5003094;28;20049;-86
2021/09/12 08:52:34;;;;;;;10.95;4.38;;;;;;;;;;4989716;28;20462;-83
2021/09/12 08:55:00;;;;;;;23.27;4.40;;;;;;;;;;4992933;28;20034;-85
2021/09/12 08:57:26;;;;;;;14.05;3.35;;;;;;;;;;4996008;28;20426;-86
2021/09/12 08:59:52;;;;;;;10.32;3.22;;;;;;;;;;5003490;28;20044;-84
2021/09/12 09:02:27;;;;;;;10.13;4.25;;;;;;;;;;4986996;28;20052;-86
2021/09/12 09:05:03;;;;;;;6.50;2.95;;;;;;;;;;4970762;28;20124;-86
2021/09/12 09:07:31;;;;;;;9.13;3.83;;;;;;;;;;4970431;28;20041;-87
2021/09/12 09:09:58;;;;;;;10.45;3.40;;;;;;;;;;5002903;28;20410;-84
2021/09/12 09:12:34;;;;;;;23.45;5.07;;;;;;;;;;4989528;28;20052;-84
2021/09/12 09:15:06;;;;;;;19.63;3.60;;;;;;;;;;5004522;28;20045;-84
2021/09/12 09:17:41;;;;;;;11.50;3.60;;;;;;;;;;5011430;28;20052;-82
2021/09/12 09:20:09;;;;;;;9.98;3.42;;;;;;;;;;5008157;28;20037;-86
2021/09/12 09:22:37;;;;;;;10.98;3.65;;;;;;;;;;5004550;28;20033;-83
2021/09/12 09:25:19;;;;;;;8.60;3.85;;;;;;;;;;5002478;28;20526;-84
2021/09/12 09:28:10;;;;;;;9.80;3.47;;;;;;;;;;5002324;28;20037;-85
2021/09/12 09:30:57;;;;;;;7.40;3.15;;;;;;;;;;4986308;28;20049;-88
2021/09/12 09:33:25;;;;;;;12.77;3.50;;;;;;;;;;4972287;28;20041;-83
2021/09/12 09:36:01;;;;;;;14.15;4.05;;;;;;;;;;4970158;28;20045;-84
2021/09/12 09:38:29;;;;;;;8.63;3.88;;;;;;;;;;4987537;28;20120;-83
2021/09/12 09:41:09;;;;;;;18.75;4.47;;;;;;;;;;5009380;28;20062;-84
2021/09/12 09:43:36;;;;;;;9.88;3.50;;;;;;;;;;5002906;28;20041;-86
2021/09/12 09:46:01;;;;;;;17.67;4.32;;;;;;;;;;5003762;28;20532;-82
2021/09/12 09:48:34;;;;;;;14.73;4.30;;;;;;;;;;5003047;28;20575;-84
2021/09/12 09:51:03;;;;;;;11.30;3.65;;;;;;;;;;5009647;28;20122;-84
2021/09/12 09:53:35;;;;;;;18.70;3.33;;;;;;;;;;4975680;28;20041;-85
2021/09/12 09:56:03;;;;;;;7.03;3.35;;;;;;;;;;4989518;28;20057;-85
2021/09/12 09:58:31;;;;;;;8.70;4.00;;;;;;;;;;4973048;28;20037;-86
2021/09/12 10:00:57;;;;;;;9.52;4.45;;;;;;;;;;4987850;28;20117;-83
2021/09/12 10:03:23;;;;;;;8.93;4.25;;;;;;;;;;4998384;28;20068;-84
2021/09/12 10:05:49;;;;;;;8.07;4.03;;;;;;;;;;4994186;28;20041;-85
2021/09/12 10:08:15;;;;;;;10.63;4.10;;;;;;;;;;5005298;28;20056;-87
2021/09/12 10:10:41;;;;;;;6.80;4.30;;;;;;;;;;4998185;28;20038;-82
2021/09/12 10:13:07;;;;;;;8.63;4.63;;;;;;;;;;4962380;28;20044;-85
2021/09/12 10:15:34;;;;;;;16.48;4.68;;;;;;;;;;4979918;28;20103;-83
2021/09/12 10:18:00;;;;;;;11.65;5.28;;;;;;;;;;4982669;28;20091;-82
2021/09/12 10:20:27;;;;;;;13.15;5.60;;;;;;;;;;4969396;28;20105;-80
2021/09/12 10:23:12;;;;;;;41.88;21.05;;;;;;;;;;4988787;28;20033;-79
2021/09/12 10:25:50;;;;;;;11.32;6.00;;;;;;;;;;4990388;28;20049;-77
2021/09/12 10:28:32;;;;;;;9.48;4.82;;;;;;;;;;5014047;28;20045;-80
2021/09/12 10:30:59;;;;;;;10.00;4.70;;;;;;;;;;5000215;28;20137;-78
2021/09/12 10:33:26;;;;;;;13.48;4.88;;;;;;;;;;4980383;28;20048;-79
2021/09/12 10:36:00;;;;;;;17.30;5.90;;;;;;;;;;4981841;28;20427;-80
2021/09/12 10:38:32;;;;;;;14.07;4.72;;;;;;;;;;4980750;28;20061;-79
2021/09/12 10:41:01;;;;;;;17.05;5.10;;;;;;;;;;4980474;28;20048;-79
2021/09/12 10:43:27;;;;;;;8.85;3.83;;;;;;;;;;4984370;28;20038;-80
2021/09/12 10:46:05;;;;;;;20.05;6.18;;;;;;;;;;4989089;28;20100;-78
2021/09/12 10:48:33;;;;;;;21.67;10.57;;;;;;;;;;4986444;28;20056;-77
2021/09/12 10:51:00;;;;;;;14.00;6.50;;;;;;;;;;4982058;28;20049;-78
2021/09/12 10:53:44;;;;;;;13.93;5.18;;;;;;;;;;4974725;28;20034;-79
2021/09/12 10:56:16;;;;;;;9.52;4.43;;;;;;;;;;4999894;28;20044;-81
2021/09/12 10:58:46;;;;;;;12.02;5.70;;;;;;;;;;4984097;28;20053;-79
2021/09/12 11:01:13;;;;;;;13.10;5.15;;;;;;;;;;4994849;28;20040;-79
2021/09/12 11:03:44;;;;;;;19.75;7.65;;;;;;;;;;4999548;28;20415;-77
2021/09/12 11:06:17;;;;;;;12.27;5.55;;;;;;;;;;5003765;28;20041;-79
2021/09/12 11:08:43;;;;;;;9.35;4.25;;;;;;;;;;4989229;28;20042;-80
2021/09/12 11:11:09;;;;;;;8.30;4.18;;;;;;;;;;4983468;28;20048;-80
2021/09/12 11:13:37;;;;;;;12.20;5.13;;;;;;;;;;4991705;28;20058;-79
2021/09/12 11:16:13;;;;;;;9.70;4.22;;;;;;;;;;4983204;28;20112;-79
2021/09/12 11:18:42;;;;;;;7.35;4.28;;;;;;;;;;4983982;28;20050;-80
2021/09/12 11:21:08;;;;;;;6.90;4.00;;;;;;;;;;4984856;28;20580;-80
2021/09/12 11:23:35;;;;;;;17.90;5.43;;;;;;;;;;4979792;28;20124;-80
2021/09/12 11:26:01;;;;;;;14.32;5.85;;;;;;;;;;4984400;28;20439;-79
2021/09/12 11:28:28;;;;;;;10.60;5.80;;;;;;;;;;4987580;28;20041;-80
2021/09/12 11:30:54;;;;;;;9.90;4.70;;;;;;;;;;5003984;28;20411;-79
2021/09/12 11:33:20;;;;;;;8.40;4.60;;;;;;;;;;4983184;28;20045;-79
2021/09/12 11:36:13;;;;;;;9.98;4.40;;;;;;;;;;4983197;28;20052;-80
2021/09/12 11:38:38;;;;;;;12.57;5.07;;;;;;;;;;5001701;28;20037;-79
2021/09/12 11:41:04;;;;;;;20.35;5.20;;;;;;;;;;4998554;28;20376;-81
2021/09/12 11:43:30;;;;;;;19.08;5.22;;;;;;;;;;5003111;28;20068;-79
2021/09/12 11:46:04;;;;;;;13.98;5.55;;;;;;;;;;5008141;28;20091;-79
2021/09/12 11:48:30;;;;;;;14.23;5.30;;;;;;;;;;5002762;28;20060;-81
2021/09/12 11:50:56;;;;;;;17.13;5.20;;;;;;;;;;5019374;28;20041;-79
2021/09/12 11:53:26;;;;;;;13.23;4.55;;;;;;;;;;5027207;28;20033;-79
2021/09/12 11:55:52;;;;;;;13.55;6.15;;;;;;;;;;5025055;28;20041;-81
2021/09/12 11:58:18;;;;;;;16.73;4.10;;;;;;;;;;4984162;28;20132;-79
2021/09/12 12:00:47;;;;;;;12.52;4.82;;;;;;;;;;4996574;28;20108;-81
2021/09/12 12:03:17;;;;;;;7.57;4.45;;;;;;;;;;4996637;28;20045;-80
2021/09/12 12:05:43;;;;;;;12.30;4.25;;;;;;;;;;5035242;28;20493;-81
2021/09/12 12:08:14;;;;;;;9.88;4.60;;;;;;;;;;5012484;28;20045;-78
2021/09/12 12:10:40;;;;;;;13.63;4.50;;;;;;;;;;4987633;28;20041;-81
2021/09/12 12:13:06;;;;;;;10.45;4.63;;;;;;;;;;5002833;28;20403;-79
2021/09/12 12:15:46;;;;;;;9.60;3.97;;;;;;;;;;4995998;28;20045;-79
2021/09/12 12:18:13;;;;;;;13.13;4.10;;;;;;;;;;4950493;28;20038;-79
2021/09/12 12:20:39;;;;;;;11.85;4.25;;;;;;;;;;4957293;28;20107;-79
2021/09/12 12:23:13;;;;;;;13.38;4.32;;;;;;;;;;4991920;28;20083;-78
2021/09/12 12:25:39;;;;;;;8.35;4.28;;;;;;;;;;5003178;28;20456;-80
2021/09/12 12:28:17;;;;;;;10.82;4.53;;;;;;;;;;5016978;28;20120;-80
2021/09/12 12:30:44;;;;;;;11.90;4.38;;;;;;;;;;5001448;28;20051;-79
2021/09/12 12:33:13;;;;;;;12.93;4.68;;;;;;;;;;5002077;28;20549;-80
2021/09/12 12:35:39;;;;;;;8.60;4.80;;;;;;;;;;5002902;28;20076;-78
2021/09/12 12:38:04;;;;;;;11.95;4.70;;;;;;;;;;5002101;28;20536;-81
2021/09/12 12:40:30;;;;;;;20.25;6.35;;;;;;;;;;5001726;28;20055;-79
2021/09/12 12:43:01;;;;;;;9.45;4.68;;;;;;;;;;4984631;28;20045;-81
2021/09/12 12:45:32;;;;;;;13.48;4.90;;;;;;;;;;4982012;28;20037;-79
2021/09/12 12:48:01;;;;;;;12.52;4.93;;;;;;;;;;4982021;28;20046;-80
2021/09/12 12:50:31;;;;;;;13.43;4.80;;;;;;;;;;4982722;28;20050;-79
2021/09/12 12:53:32;;;;;;;10.50;4.95;;;;;;;;;;4970047;28;20103;-79
2021/09/12 12:56:00;;;;;;;12.35;4.32;;;;;;;;;;4989487;28;20095;-82
2021/09/12 12:58:27;;;;;;;13.65;5.30;;;;;;;;;;4981568;28;20047;-79
2021/09/12 13:00:54;;;;;;;39.75;21.88;;;;;;;;;;4994238;28;20065;-80
2021/09/12 13:03:26;;;;;;;13.18;4.97;;;;;;;;;;5007109;28;20042;-81
2021/09/12 13:05:52;;;;;;;19.70;7.15;;;;;;;;;;4963240;28;20037;-80
2021/09/12 13:08:20;;;;;;;11.35;4.20;;;;;;;;;;4979248;28;20096;-80
2021/09/12 13:10:47;;;;;;;12.57;5.00;;;;;;;;;;5013301;28;20521;-81
2021/09/12 13:13:17;;;;;;;13.10;4.55;;;;;;;;;;4976694;28;20060;-79
2021/09/12 13:15:49;;;;;;;15.93;4.03;;;;;;;;;;4988140;28;20121;-82
2021/09/12 13:18:18;;;;;;;9.48;4.68;;;;;;;;;;5004358;28;20044;-82
2021/09/12 13:20:50;;;;;;;17.38;4.88;;;;;;;;;;4996077;28;20045;-81
2021/09/12 13:23:16;;;;;;;10.88;4.40;;;;;;;;;;4989411;28;20064;-79
2021/09/12 13:25:42;;;;;;;8.40;4.50;;;;;;;;;;4997237;28;20068;-82
2021/09/12 13:28:07;;;;;;;13.52;4.80;;;;;;;;;;4997474;28;20037;-79
2021/09/12 13:30:33;;;;;;;12.27;4.32;;;;;;;;;;4992100;28;20037;-80
2021/09/12 13:32:59;;;;;;;9.82;4.65;;;;;;;;;;4988872;28;20419;-81
2021/09/12 13:35:28;;;;;;;9.52;4.38;;;;;;;;;;4993110;28;20415;-80
2021/09/12 13:37:54;;;;;;;7.72;4.28;;;;;;;;;;4989898;28;20102;-80
2021/09/12 13:40:20;;;;;;;8.52;4.10;;;;;;;;;;4991758;28;20064;-80
2021/09/12 13:42:46;;;;;;;11.13;4.50;;;;;;;;;;4988469;28;20111;-80
2021/09/12 13:45:13;;;;;;;12.13;5.50;;;;;;;;;;4989251;28;20111;-81
2021/09/12 13:47:39;;;;;;;5.32;3.17;;;;;;;;;;4984567;28;20498;-80
2021/09/12 13:50:05;;;;;;;7.82;3.28;;;;;;;;;;4991125;28;20080;-80
2021/09/12 13:52:31;;;;;;;15.10;4.22;;;;;;;;;;4985333;28;20045;-82
2021/09/12 13:54:57;;;;;;;6.82;3.92;;;;;;;;;;4982727;28;20056;-80
2021/09/12 13:57:23;;;;;;;10.98;5.63;;;;;;;;;;4980726;28;20128;-79
2021/09/12 13:59:49;;;;;;;81.60;61.92;;;;;;;;;;4989071;28;20530;-79
2021/09/12 14:02:17;;;;;;;77.50;70.00;;;;;;;;;;4991560;28;20408;-80
2021/09/12 14:04:49;;;;;;;129.70;112.63;;;;;;;;;;4990199;28;20052;-80
2021/09/12 14:07:18;;;;;;;325.15;258.65;;;;;;;;;;4993656;28;20500;-81
2021/09/12 14:09:46;;;;;;;465.55;399.13;;;;;;;;;;4993893;28;20063;-79
2021/09/12 14:12:15;;;;;;;26.80;15.32;;;;;;;;;;4989279;28;20048;-81
2021/09/12 14:14:41;;;;;;;454.63;374.90;;;;;;;;;;4991178;28;20110;-81
2021/09/12 14:17:06;;;;;;;16.40;9.07;;;;;;;;;;4974918;28;20042;-80
2021/09/12 14:19:32;;;;;;;534.08;456.13;;;;;;;;;;4992777;28;20403;-80
2021/09/12 14:21:58;;;;;;;184.95;141.05;;;;;;;;;;4997014;28;20101;-81
2021/09/12 14:24:30;;;;;;;428.20;365.27;;;;;;;;;;4988086;28;20034;-81
2021/09/12 14:26:58;;;;;;;435.98;373.58;;;;;;;;;;4991490;28;20034;-81
2021/09/12 14:29:24;;;;;;;501.30;436.95;;;;;;;;;;4998349;28;20538;-80
2021/09/12 14:31:50;;;;;;;86.68;58.53;;;;;;;;;;4990678;28;20044;-80
2021/09/12 14:34:16;;;;;;;665.55;548.65;;;;;;;;;;4989020;28;20051;-81